createdAt,value
2023-04-28T00:00:09.308Z,87.12
2023-04-28T00:01:09.289Z,86.81
2023-04-28T00:02:09.299Z,87.12
2023-04-28T00:03:09.460Z,87.22
2023-04-28T00:04:09.672Z,87.84
2023-04-28T00:05:09.443Z,87.63
2023-04-28T00:06:09.221Z,88.14
2023-04-28T00:07:09.218Z,87.73
2023-04-28T00:08:09.234Z,87.43
2023-04-28T00:09:09.453Z,87.12
2023-04-28T00:10:09.197Z,87.22
2023-04-28T00:11:09.183Z,86.91
2023-04-28T00:12:09.184Z,87.12
2023-04-28T00:13:09.166Z,87.63
2023-04-28T00:14:09.149Z,87.94
2023-04-28T00:15:09.161Z,87.73
2023-04-28T00:16:09.232Z,88.24
2023-04-28T00:17:09.140Z,88.24
2023-04-28T00:18:09.169Z,87.84
2023-04-28T00:19:09.397Z,87.94
2023-04-28T00:20:09.098Z,87.84
2023-04-28T00:21:09.075Z,88.35
2023-04-28T00:22:09.067Z,88.24
2023-04-28T00:23:09.083Z,88.14
2023-04-28T00:24:09.043Z,88.24
2023-04-28T00:25:09.047Z,87.84
2023-04-28T00:26:09.040Z,88.04
2023-04-28T00:27:09.019Z,88.14
2023-04-28T00:28:09.038Z,88.24
2023-04-28T00:29:09.005Z,88.35
2023-04-28T00:30:08.984Z,88.45
2023-04-28T00:31:08.970Z,88.04
2023-04-28T00:32:09.110Z,88.76
2023-04-28T00:33:08.993Z,88.04
2023-04-28T00:34:09.029Z,88.14
2023-04-28T00:35:08.957Z,88.35
2023-04-28T00:36:08.930Z,88.49
2023-04-28T00:37:08.933Z,88.35
2023-04-28T00:38:08.908Z,88.66
2023-04-28T00:39:08.909Z,88.90
2023-04-28T00:40:08.881Z,88.76
2023-04-28T00:41:08.881Z,88.45
2023-04-28T00:42:08.852Z,88.35
2023-04-28T00:43:08.860Z,88.45
2023-04-28T00:44:08.880Z,88.24
2023-04-28T00:45:08.842Z,88.24
2023-04-28T00:46:08.824Z,88.14
2023-04-28T00:47:08.815Z,88.14
2023-04-28T00:48:08.857Z,88.14
2023-04-28T00:49:08.776Z,88.24
2023-04-28T00:50:08.804Z,87.94
2023-04-28T00:51:08.793Z,87.43
2023-04-28T00:52:08.763Z,87.53
2023-04-28T00:53:08.742Z,87.73
2023-04-28T00:54:08.737Z,87.84
2023-04-28T00:55:08.749Z,87.43
2023-04-28T00:56:08.734Z,87.84
2023-04-28T00:57:08.693Z,87.43
2023-04-28T00:58:08.692Z,87.53
2023-04-28T00:59:08.674Z,87.73
2023-04-28T01:00:08.690Z,87.94
2023-04-28T01:01:08.688Z,88.04
2023-04-28T01:02:08.671Z,87.73
2023-04-28T01:03:08.782Z,87.70
2023-04-28T01:04:08.933Z,87.70
2023-04-28T01:05:08.658Z,87.70
2023-04-28T01:06:08.625Z,87.70
2023-04-28T01:07:08.640Z,87.70
2023-04-28T01:08:08.602Z,87.79
2023-04-28T01:09:08.590Z,87.90
2023-04-28T01:10:08.585Z,88.21
2023-04-28T01:11:08.571Z,88.00
2023-04-28T01:12:08.558Z,87.70
2023-04-28T01:13:08.529Z,88.00
2023-04-28T01:14:08.545Z,87.70
2023-04-28T01:15:09.337Z,87.79
2023-04-28T01:16:08.550Z,87.79
2023-04-28T01:17:08.542Z,87.79
2023-04-28T01:18:08.502Z,87.79
2023-04-28T01:19:08.488Z,87.70
2023-04-28T01:20:08.489Z,87.79
2023-04-28T01:21:08.471Z,87.59
2023-04-28T01:22:08.468Z,87.38
2023-04-28T01:23:08.436Z,87.59
2023-04-28T01:24:08.410Z,87.49
2023-04-28T01:25:08.470Z,87.49
2023-04-28T01:26:08.414Z,87.59
2023-04-28T01:27:08.431Z,87.59
2023-04-28T01:28:08.387Z,87.59
2023-04-28T01:29:08.375Z,87.49
2023-04-28T01:30:08.372Z,87.59
2023-04-28T01:31:08.418Z,87.59
2023-04-28T01:32:08.346Z,87.59
2023-04-28T01:33:08.428Z,87.79
2023-04-28T01:34:08.314Z,87.38
2023-04-28T01:35:08.355Z,87.49
2023-04-28T01:36:08.288Z,87.38
2023-04-28T01:37:08.293Z,87.38
2023-04-28T01:38:08.297Z,87.59
2023-04-28T01:39:08.279Z,87.34
2023-04-28T01:40:08.287Z,87.24
2023-04-28T01:41:11.883Z,87.04
2023-04-28T01:42:08.253Z,87.24
2023-04-28T01:43:08.240Z,87.14
2023-04-28T01:44:08.211Z,87.14
2023-04-28T01:45:08.211Z,87.14
2023-04-28T01:46:08.279Z,87.34
2023-04-28T01:47:08.191Z,86.93
2023-04-28T01:48:08.284Z,87.04
2023-04-28T01:49:08.177Z,87.04
2023-04-28T01:50:08.151Z,86.93
2023-04-28T01:51:08.165Z,86.83
2023-04-28T01:52:08.152Z,86.83
2023-04-28T01:53:08.136Z,86.73
2023-04-28T01:54:08.128Z,87.04
2023-04-28T01:55:08.116Z,87.14
2023-04-28T01:56:08.114Z,86.93
2023-04-28T01:57:08.118Z,87.14
2023-04-28T01:58:08.069Z,86.93
2023-04-28T01:59:08.085Z,86.93
2023-04-28T02:00:08.055Z,87.04
2023-04-28T02:01:08.109Z,87.04
2023-04-28T02:02:08.044Z,87.24
2023-04-28T02:03:08.144Z,87.24
2023-04-28T02:04:08.153Z,87.34
2023-04-28T02:05:08.011Z,87.45
2023-04-28T02:06:07.991Z,87.45
2023-04-28T02:07:08.007Z,87.24
2023-04-28T02:08:07.974Z,87.55
2023-04-28T02:09:07.976Z,87.55
2023-04-28T02:10:07.951Z,87.55
2023-04-28T02:11:07.935Z,87.45
2023-04-28T02:12:07.933Z,87.55
2023-04-28T02:13:07.910Z,87.65
2023-04-28T02:14:07.890Z,87.65
2023-04-28T02:15:07.894Z,87.76
2023-04-28T02:16:07.915Z,87.85
2023-04-28T02:17:07.871Z,88.10
2023-04-28T02:18:08.024Z,88.00
2023-04-28T02:19:07.849Z,87.85
2023-04-28T02:20:07.913Z,87.76
2023-04-28T02:21:07.836Z,87.65
2023-04-28T02:22:07.870Z,87.55
2023-04-28T02:23:07.832Z,87.55
2023-04-28T02:24:07.796Z,87.55
2023-04-28T02:25:07.801Z,87.55
2023-04-28T02:26:07.781Z,87.55
2023-04-28T02:27:07.786Z,87.55
2023-04-28T02:28:07.788Z,87.45
2023-04-28T02:29:07.745Z,87.45
2023-04-28T02:30:07.726Z,87.45
2023-04-28T02:31:07.982Z,87.45
2023-04-28T02:32:07.721Z,87.55
2023-04-28T02:33:07.743Z,87.45
2023-04-28T02:34:07.965Z,87.65
2023-04-28T02:35:07.678Z,87.45
2023-04-28T02:36:07.791Z,87.55
2023-04-28T02:37:07.687Z,87.24
2023-04-28T02:38:07.670Z,87.45
2023-04-28T02:39:07.649Z,87.55
2023-04-28T02:40:07.647Z,87.45
2023-04-28T02:41:07.650Z,87.34
2023-04-28T02:42:07.615Z,87.14
2023-04-28T02:43:07.622Z,87.14
2023-04-28T02:44:07.666Z,87.04
2023-04-28T02:45:07.587Z,87.55
2023-04-28T02:46:07.569Z,87.04
2023-04-28T02:47:07.672Z,86.69
2023-04-28T02:48:07.647Z,86.90
2023-04-28T02:49:07.526Z,86.48
2023-04-28T02:50:07.532Z,86.38
2023-04-28T02:51:07.521Z,86.38
2023-04-28T02:52:07.508Z,86.79
2023-04-28T02:53:07.587Z,86.99
2023-04-28T02:54:07.725Z,88.12
2023-04-28T02:55:07.472Z,87.71
2023-04-28T02:56:07.535Z,87.51
2023-04-28T02:57:07.470Z,87.71
2023-04-28T02:58:07.478Z,87.96
2023-04-28T02:59:07.432Z,87.76
2023-04-28T03:00:07.426Z,87.96
2023-04-28T03:01:08.381Z,88.37
2023-04-28T03:02:07.448Z,88.68
2023-04-28T03:03:08.141Z,88.68
2023-04-28T03:04:22.784Z,88.88
2023-04-28T03:05:07.370Z,88.88
2023-04-28T03:06:07.372Z,89.09
2023-04-28T03:07:07.380Z,88.37
2023-04-28T03:08:07.557Z,88.37
2023-04-28T03:09:07.427Z,88.98
2023-04-28T03:10:07.340Z,89.19
2023-04-28T03:11:07.542Z,89.09
2023-04-28T03:12:07.321Z,88.88
2023-04-28T03:13:07.312Z,88.98
2023-04-28T03:14:07.271Z,89.39
2023-04-28T03:15:07.267Z,88.37
2023-04-28T03:16:07.317Z,86.48
2023-04-28T03:17:07.249Z,85.97
2023-04-28T03:18:07.309Z,85.31
2023-04-28T03:19:07.220Z,85.42
2023-04-28T03:20:07.217Z,85.01
2023-04-28T03:21:07.212Z,85.31
2023-04-28T03:22:07.654Z,85.31
2023-04-28T03:23:07.215Z,84.80
2023-04-28T03:24:07.163Z,83.47
2023-04-28T03:25:07.160Z,83.68
2023-04-28T03:26:07.164Z,85.22
2023-04-28T03:27:07.142Z,83.06
2023-04-28T03:28:07.161Z,82.92
2023-04-28T03:29:07.109Z,83.23
2023-04-28T03:30:07.134Z,81.90
2023-04-28T03:31:07.108Z,81.70
2023-04-28T03:32:07.143Z,81.35
2023-04-28T03:33:07.143Z,81.45
2023-04-28T03:34:07.084Z,81.04
2023-04-28T03:35:07.047Z,80.02
2023-04-28T03:36:07.039Z,80.60
2023-04-28T03:37:07.033Z,79.68
2023-04-28T03:38:07.046Z,79.27
2023-04-28T03:39:07.020Z,78.96
2023-04-28T03:40:07.025Z,80.29
2023-04-28T03:41:06.996Z,79.98
2023-04-28T03:42:06.997Z,80.39
2023-04-28T03:43:06.986Z,80.60
2023-04-28T03:44:22.586Z,82.03
2023-04-28T03:45:06.946Z,82.84
2023-04-28T03:46:06.985Z,81.96
2023-04-28T03:47:06.960Z,81.56
2023-04-28T03:48:06.947Z,82.78
2023-04-28T03:49:06.927Z,83.50
2023-04-28T03:50:06.903Z,83.39
2023-04-28T03:51:14.115Z,83.91
2023-04-28T03:52:06.901Z,82.98
2023-04-28T03:53:06.879Z,83.60
2023-04-28T03:54:06.862Z,83.44
2023-04-28T03:55:06.864Z,84.66
2023-04-28T03:56:06.842Z,84.36
2023-04-28T03:57:06.842Z,84.15
2023-04-28T03:58:06.859Z,84.25
2023-04-28T03:59:06.808Z,84.36
2023-04-28T04:00:06.823Z,84.77
2023-04-28T04:01:06.793Z,85.69
2023-04-28T04:02:06.822Z,85.28
2023-04-28T04:03:06.897Z,84.97
2023-04-28T04:04:06.994Z,84.25
2023-04-28T04:05:07.009Z,84.97
2023-04-28T04:06:06.772Z,85.17
2023-04-28T04:07:06.733Z,85.38
2023-04-28T04:08:06.723Z,85.48
2023-04-28T04:09:06.766Z,86.40
2023-04-28T04:10:06.759Z,85.79
2023-04-28T04:11:06.706Z,85.89
2023-04-28T04:12:06.687Z,86.10
2023-04-28T04:13:06.702Z,84.05
2023-04-28T04:14:06.675Z,84.87
2023-04-28T04:15:06.666Z,86.77
2023-04-28T04:16:06.881Z,86.57
2023-04-28T04:17:06.638Z,86.57
2023-04-28T04:18:06.714Z,86.05
2023-04-28T04:19:06.630Z,86.16
2023-04-28T04:20:09.109Z,87.08
2023-04-28T04:21:06.579Z,86.05
2023-04-28T04:22:06.574Z,85.24
2023-04-28T04:23:06.556Z,85.96
2023-04-28T04:24:06.571Z,87.79
2023-04-28T04:25:06.540Z,87.59
2023-04-28T04:26:06.555Z,89.53
2023-04-28T04:27:06.546Z,89.84
2023-04-28T04:28:06.550Z,89.84
2023-04-28T04:29:06.527Z,90.77
2023-04-28T04:30:06.531Z,90.97
2023-04-28T04:31:06.533Z,92.50
2023-04-28T04:32:06.488Z,93.63
2023-04-28T04:33:06.542Z,93.93
2023-04-28T04:34:06.459Z,94.55
2023-04-28T04:35:06.633Z,94.14
2023-04-28T04:36:06.423Z,94.39
2023-04-28T04:37:06.426Z,95.51
2023-04-28T04:38:06.415Z,95.51
2023-04-28T04:39:06.404Z,95.82
2023-04-28T04:40:06.403Z,96.33
2023-04-28T04:41:07.038Z,96.84
2023-04-28T04:42:17.178Z,96.74
2023-04-28T04:43:19.101Z,96.74
2023-04-28T04:44:06.980Z,96.54
2023-04-28T04:45:06.379Z,96.95
2023-04-28T04:46:06.398Z,97.56
2023-04-28T04:47:07.190Z,97.56
2023-04-28T04:48:06.350Z,97.56
2023-04-28T04:49:06.307Z,97.66
2023-04-28T04:50:06.335Z,97.66
2023-04-28T04:51:06.267Z,97.56
2023-04-28T04:52:06.266Z,97.09
2023-04-28T04:53:06.780Z,97.09
2023-04-28T04:54:06.235Z,96.99
2023-04-28T04:55:06.257Z,97.71
2023-04-28T04:56:06.242Z,97.61
2023-04-28T04:57:06.212Z,98.43
2023-04-28T04:58:06.212Z,98.22
2023-04-28T04:59:06.226Z,98.02
2023-04-28T05:00:06.168Z,98.43
2023-04-28T05:01:06.173Z,98.43
2023-04-28T05:02:06.178Z,97.81
2023-04-28T05:03:06.386Z,98.33
2023-04-28T05:04:06.252Z,98.43
2023-04-28T05:05:19.698Z,98.12
2023-04-28T05:06:06.124Z,97.81
2023-04-28T05:07:06.114Z,98.33
2023-04-28T05:08:06.104Z,98.63
2023-04-28T05:09:06.093Z,99.25
2023-04-28T05:10:06.112Z,99.04
2023-04-28T05:11:06.068Z,99.45
2023-04-28T05:12:06.081Z,99.45
2023-04-28T05:13:06.058Z,99.76
2023-04-28T05:14:06.105Z,99.91
2023-04-28T05:15:06.156Z,99.60
2023-04-28T05:16:06.060Z,99.70
2023-04-28T05:17:05.999Z,99.80
2023-04-28T05:18:06.042Z,99.99
2023-04-28T05:19:06.018Z,99.99
2023-04-28T05:20:05.998Z,99.99
2023-04-28T05:21:05.968Z,99.99
2023-04-28T05:22:06.180Z,99.99
2023-04-28T05:23:05.973Z,99.99
2023-04-28T05:24:05.943Z,99.99
2023-04-28T05:25:05.931Z,99.99
2023-04-28T05:26:05.981Z,99.99
2023-04-28T05:27:05.898Z,99.99
2023-04-28T05:28:05.888Z,99.70
2023-04-28T05:29:05.891Z,99.91
2023-04-28T05:30:05.907Z,99.80
2023-04-28T05:31:05.862Z,99.99
2023-04-28T05:32:05.935Z,99.60
2023-04-28T05:33:05.914Z,99.40
2023-04-28T05:34:05.838Z,99.50
2023-04-28T05:35:05.824Z,99.50
2023-04-28T05:36:05.825Z,99.50
2023-04-28T05:37:05.819Z,99.35
2023-04-28T05:38:05.805Z,99.04
2023-04-28T05:39:05.805Z,99.35
2023-04-28T05:40:05.763Z,99.66
2023-04-28T05:41:05.858Z,99.76
2023-04-28T05:42:05.833Z,99.66
2023-04-28T05:43:05.740Z,99.96
2023-04-28T05:44:05.738Z,99.76
2023-04-28T05:45:05.732Z,99.96
2023-04-28T05:46:12.093Z,99.86
2023-04-28T05:47:05.700Z,99.99
2023-04-28T05:48:05.723Z,99.99
2023-04-28T05:49:05.689Z,99.99
2023-04-28T05:50:05.683Z,99.99
2023-04-28T05:51:05.670Z,99.99
2023-04-28T05:52:05.642Z,99.99
2023-04-28T05:53:05.647Z,99.99
2023-04-28T05:54:06.576Z,99.99
2023-04-28T05:55:05.631Z,99.99
2023-04-28T05:56:05.623Z,99.99
2023-04-28T05:57:05.602Z,99.99
2023-04-28T05:58:05.611Z,99.99
2023-04-28T05:59:05.590Z,99.99
2023-04-28T06:00:05.631Z,99.99
2023-04-28T06:01:05.595Z,99.99
2023-04-28T06:02:05.575Z,99.99
2023-04-28T06:03:05.735Z,99.99
2023-04-28T06:04:05.926Z,99.99
2023-04-28T06:05:05.690Z,99.99
2023-04-28T06:06:09.680Z,99.99
2023-04-28T06:07:05.511Z,99.99
2023-04-28T06:08:05.532Z,99.99
2023-04-28T06:09:05.484Z,99.99
2023-04-28T06:10:05.488Z,99.99
2023-04-28T06:11:05.496Z,99.99
2023-04-28T06:12:05.465Z,99.99
2023-04-28T06:13:05.450Z,99.99
2023-04-28T06:14:05.434Z,99.99
2023-04-28T06:15:05.462Z,99.99
2023-04-28T06:16:05.496Z,99.99
2023-04-28T06:17:05.709Z,99.99
2023-04-28T06:18:05.537Z,99.99
2023-04-28T06:19:06.109Z,99.99
2023-04-28T06:20:05.375Z,99.99
2023-04-28T06:21:05.345Z,99.99
2023-04-28T06:22:05.356Z,99.99
2023-04-28T06:23:05.331Z,99.99
2023-04-28T06:24:05.315Z,99.99
2023-04-28T06:25:05.308Z,99.99
2023-04-28T06:26:05.298Z,99.99
2023-04-28T06:27:05.317Z,99.99
2023-04-28T06:28:05.309Z,99.99
2023-04-28T06:29:05.264Z,99.99
2023-04-28T06:30:05.279Z,99.99
2023-04-28T06:31:05.288Z,99.99
2023-04-28T06:32:05.291Z,99.99
2023-04-28T06:33:05.274Z,99.99
2023-04-28T06:34:05.217Z,99.99
2023-04-28T06:35:05.211Z,99.99
2023-04-28T06:36:05.201Z,99.99
2023-04-28T06:37:05.204Z,99.99
2023-04-28T06:38:05.167Z,99.99
2023-04-28T06:39:05.235Z,99.99
2023-04-28T06:40:05.154Z,99.99
2023-04-28T06:41:05.144Z,99.99
2023-04-28T06:42:05.135Z,99.99
2023-04-28T06:43:05.139Z,99.99
2023-04-28T06:44:05.110Z,99.99
2023-04-28T06:45:05.108Z,99.99
2023-04-28T06:46:05.105Z,99.99
2023-04-28T06:47:05.236Z,99.99
2023-04-28T06:48:05.107Z,99.99
2023-04-28T06:49:05.064Z,99.99
2023-04-28T06:50:05.062Z,99.99
2023-04-28T06:51:05.030Z,99.99
2023-04-28T06:52:05.050Z,99.99
2023-04-28T06:53:05.038Z,99.99
2023-04-28T06:54:05.009Z,99.99
2023-04-28T06:55:05.004Z,99.99
2023-04-28T06:56:04.992Z,99.99
2023-04-28T06:57:04.987Z,99.99
2023-04-28T06:58:05.012Z,99.99
2023-04-28T06:59:04.980Z,99.99
2023-04-28T07:00:04.974Z,99.99
2023-04-28T07:01:04.984Z,99.99
2023-04-28T07:02:04.991Z,99.99
2023-04-28T07:03:05.300Z,99.99
2023-04-28T07:04:05.137Z,99.99
2023-04-28T07:05:04.934Z,99.99
2023-04-28T07:06:04.941Z,99.99
2023-04-28T07:07:04.885Z,99.99
2023-04-28T07:08:04.900Z,99.99
2023-04-28T07:09:04.893Z,99.99
2023-04-28T07:10:04.942Z,99.99
2023-04-28T07:11:05.128Z,99.99
2023-04-28T07:12:04.847Z,99.99
2023-04-28T07:13:05.505Z,99.99
2023-04-28T07:14:04.832Z,99.99
2023-04-28T07:15:05.151Z,99.99
2023-04-28T07:16:04.839Z,99.99
2023-04-28T07:17:04.791Z,99.99
2023-04-28T07:18:04.957Z,99.99
2023-04-28T07:19:04.789Z,99.99
2023-04-28T07:20:04.837Z,99.99
2023-04-28T07:21:05.611Z,99.99
2023-04-28T07:22:04.827Z,99.99
2023-04-28T07:23:04.713Z,99.99
2023-04-28T07:24:04.731Z,99.99
2023-04-28T07:25:05.955Z,99.99
2023-04-28T07:26:04.726Z,99.99
2023-04-28T07:27:04.718Z,99.99
2023-04-28T07:28:04.676Z,99.99
2023-04-28T07:29:04.754Z,99.99
2023-04-28T07:30:14.770Z,99.99
2023-04-28T07:31:04.637Z,99.99
2023-04-28T07:32:07.353Z,99.99
2023-04-28T07:33:04.679Z,99.99
2023-04-28T07:34:04.603Z,99.99
2023-04-28T07:35:04.844Z,99.99
2023-04-28T07:36:04.581Z,99.99
2023-04-28T07:37:05.429Z,99.99
2023-04-28T07:38:04.550Z,99.99
2023-04-28T07:39:04.543Z,99.99
2023-04-28T07:40:04.529Z,99.99
2023-04-28T07:41:05.750Z,99.99
2023-04-28T07:42:04.621Z,99.99
2023-04-28T07:43:04.510Z,99.99
2023-04-28T07:44:04.540Z,99.99
2023-04-28T07:45:04.539Z,99.99
2023-04-28T07:46:04.700Z,99.99
2023-04-28T07:47:04.479Z,99.99
2023-04-28T07:48:04.582Z,99.99
2023-04-28T07:49:04.508Z,99.99
2023-04-28T07:50:04.443Z,99.99
2023-04-28T07:51:04.765Z,99.99
2023-04-28T07:52:04.465Z,99.99
2023-04-28T07:53:04.427Z,99.99
2023-04-28T07:54:04.451Z,99.99
2023-04-28T07:55:04.431Z,99.99
2023-04-28T07:56:04.486Z,99.99
2023-04-28T07:57:04.385Z,99.99
2023-04-28T07:58:04.424Z,99.99
2023-04-28T07:59:04.429Z,99.99
2023-04-28T08:00:04.346Z,99.99
2023-04-28T08:01:04.342Z,99.99
2023-04-28T08:02:04.346Z,99.99
2023-04-28T08:03:04.446Z,99.99
2023-04-28T08:04:04.496Z,99.99
2023-04-28T08:05:04.572Z,99.99
2023-04-28T08:06:04.435Z,99.99
2023-04-28T08:07:04.246Z,99.99
2023-04-28T08:08:04.253Z,99.99
2023-04-28T08:09:04.229Z,99.99
2023-04-28T08:10:04.262Z,99.99
2023-04-28T08:11:04.240Z,99.99
2023-04-28T08:12:04.243Z,99.99
2023-04-28T08:13:04.208Z,99.99
2023-04-28T08:14:04.194Z,99.99
2023-04-28T08:15:04.211Z,99.99
2023-04-28T08:16:04.216Z,99.99
2023-04-28T08:17:04.155Z,99.99
2023-04-28T08:18:04.151Z,99.99
2023-04-28T08:19:04.410Z,99.99
2023-04-28T08:20:04.120Z,99.99
2023-04-28T08:21:04.141Z,99.99
2023-04-28T08:22:04.100Z,99.99
2023-04-28T08:23:04.091Z,99.99
2023-04-28T08:24:04.070Z,99.99
2023-04-28T08:25:04.101Z,99.99
2023-04-28T08:26:04.142Z,99.99
2023-04-28T08:27:04.062Z,99.99
2023-04-28T08:28:04.028Z,99.99
2023-04-28T08:29:04.054Z,99.99
2023-04-28T08:30:04.013Z,99.99
2023-04-28T08:31:04.060Z,99.99
2023-04-28T08:32:03.989Z,99.99
2023-04-28T08:33:04.024Z,99.99
2023-04-28T08:34:04.222Z,99.99
2023-04-28T08:35:03.963Z,99.99
2023-04-28T08:36:03.956Z,99.99
2023-04-28T08:37:03.943Z,99.99
2023-04-28T08:38:03.931Z,99.99
2023-04-28T08:39:03.932Z,99.99
2023-04-28T08:40:03.946Z,99.99
2023-04-28T08:41:03.906Z,99.99
2023-04-28T08:42:03.894Z,99.99
2023-04-28T08:43:03.881Z,99.99
2023-04-28T08:44:03.856Z,99.99
2023-04-28T08:45:03.870Z,99.99
2023-04-28T08:46:04.420Z,99.99
2023-04-28T08:47:03.877Z,99.99
2023-04-28T08:48:03.901Z,99.99
2023-04-28T08:49:03.814Z,99.99
2023-04-28T08:50:03.813Z,99.99
2023-04-28T08:51:03.823Z,99.99
2023-04-28T08:52:03.874Z,99.99
2023-04-28T08:53:03.784Z,99.99
2023-04-28T08:54:24.863Z,99.99
2023-04-28T08:55:03.764Z,99.99
2023-04-28T08:56:04.073Z,99.99
2023-04-28T08:57:03.758Z,99.99
2023-04-28T08:58:03.807Z,99.99
2023-04-28T08:59:03.708Z,99.99
2023-04-28T09:00:03.715Z,99.99
2023-04-28T09:01:03.704Z,99.99
2023-04-28T09:02:03.728Z,99.99
2023-04-28T09:03:03.746Z,99.99
2023-04-28T09:04:14.246Z,99.99
2023-04-28T09:05:03.920Z,99.99
2023-04-28T09:06:03.641Z,99.99
2023-04-28T09:07:06.013Z,99.99
2023-04-28T09:08:24.857Z,99.99
2023-04-28T09:09:03.776Z,99.99
2023-04-28T09:10:05.034Z,99.99
2023-04-28T09:11:03.830Z,99.99
2023-04-28T09:12:03.702Z,99.99
2023-04-28T09:13:03.566Z,99.99
2023-04-28T09:14:03.568Z,99.99
2023-04-28T09:15:03.550Z,99.99
2023-04-28T09:16:03.607Z,99.99
2023-04-28T09:17:03.557Z,99.99
2023-04-28T09:18:03.961Z,99.99
2023-04-28T09:19:03.526Z,99.99
2023-04-28T09:20:03.501Z,99.99
2023-04-28T09:21:03.487Z,99.99
2023-04-28T09:22:13.668Z,99.99
2023-04-28T09:23:03.544Z,99.99
2023-04-28T09:24:03.470Z,99.99
2023-04-28T09:25:03.462Z,99.99
2023-04-28T09:26:03.589Z,99.99
2023-04-28T09:27:03.416Z,99.99
2023-04-28T09:28:03.570Z,99.99
2023-04-28T09:29:03.415Z,99.99
2023-04-28T09:30:03.425Z,99.99
2023-04-28T09:31:03.393Z,99.99
2023-04-28T09:32:03.403Z,99.99
2023-04-28T09:33:03.428Z,99.99
2023-04-28T09:34:03.392Z,99.99
2023-04-28T09:35:03.346Z,99.99
2023-04-28T09:36:03.347Z,99.99
2023-04-28T09:37:03.368Z,99.99
2023-04-28T09:38:03.326Z,99.99
2023-04-28T09:39:03.317Z,99.99
2023-04-28T09:40:03.289Z,99.99
2023-04-28T09:41:03.281Z,99.99
2023-04-28T09:42:03.388Z,99.99
2023-04-28T09:43:11.933Z,99.99
2023-04-28T09:44:03.328Z,99.99
2023-04-28T09:45:03.273Z,99.99
2023-04-28T09:46:03.405Z,99.99
2023-04-28T09:47:03.227Z,99.99
2023-04-28T09:48:03.286Z,99.99
2023-04-28T09:49:03.192Z,99.99
2023-04-28T09:50:03.199Z,99.99
2023-04-28T09:51:03.344Z,99.99
2023-04-28T09:52:03.188Z,99.99
2023-04-28T09:53:03.156Z,99.99
2023-04-28T09:54:03.267Z,99.99
2023-04-28T09:55:03.155Z,99.99
2023-04-28T09:56:03.143Z,99.99
2023-04-28T09:57:03.551Z,99.99
2023-04-28T09:58:03.173Z,99.99
2023-04-28T09:59:03.229Z,99.99
2023-04-28T10:00:03.228Z,99.99
2023-04-28T10:01:03.850Z,99.99
2023-04-28T10:02:12.768Z,99.99
2023-04-28T10:03:03.157Z,99.99
2023-04-28T10:04:03.157Z,99.99
2023-04-28T10:05:03.273Z,99.99
2023-04-28T10:06:03.036Z,99.99
2023-04-28T10:07:03.014Z,99.99
2023-04-28T10:08:03.015Z,99.99
2023-04-28T10:09:03.168Z,99.99
2023-04-28T10:10:02.990Z,99.99
2023-04-28T10:11:02.996Z,99.99
2023-04-28T10:12:03.017Z,99.99
2023-04-28T10:13:02.955Z,99.99
2023-04-28T10:14:02.946Z,99.77
2023-04-28T10:15:02.917Z,99.16
2023-04-28T10:16:02.941Z,99.37
2023-04-28T10:17:02.906Z,99.22
2023-04-28T10:18:02.964Z,99.99
2023-04-28T10:19:02.890Z,99.63
2023-04-28T10:20:02.899Z,99.83
2023-04-28T10:21:02.873Z,99.99
2023-04-28T10:22:02.867Z,99.99
2023-04-28T10:23:02.863Z,99.99
2023-04-28T10:24:02.853Z,99.99
2023-04-28T10:25:02.837Z,99.99
2023-04-28T10:26:02.853Z,99.99
2023-04-28T10:27:02.820Z,99.99
2023-04-28T10:28:02.837Z,99.99
2023-04-28T10:29:02.794Z,99.99
2023-04-28T10:30:03.900Z,99.99
2023-04-28T10:31:02.819Z,99.99
2023-04-28T10:32:02.762Z,99.88
2023-04-28T10:33:02.771Z,99.99
2023-04-28T10:34:02.756Z,99.99
2023-04-28T10:35:02.763Z,99.99
2023-04-28T10:36:02.737Z,99.99
2023-04-28T10:37:02.729Z,99.99
2023-04-28T10:38:02.739Z,99.99
2023-04-28T10:39:02.691Z,99.99
2023-04-28T10:40:02.677Z,99.99
2023-04-28T10:41:02.684Z,99.28
2023-04-28T10:42:02.661Z,99.28
2023-04-28T10:43:02.714Z,96.64
2023-04-28T10:44:02.626Z,97.96
2023-04-28T10:45:02.644Z,96.54
2023-04-28T10:46:02.992Z,97.05
2023-04-28T10:47:02.622Z,96.70
2023-04-28T10:48:02.638Z,94.98
2023-04-28T10:49:02.577Z,96.19
2023-04-28T10:50:02.568Z,95.38
2023-04-28T10:51:02.740Z,94.67
2023-04-28T10:52:02.566Z,93.65
2023-04-28T10:53:02.769Z,94.26
2023-04-28T10:54:02.521Z,94.06
2023-04-28T10:55:07.055Z,93.45
2023-04-28T10:56:02.517Z,93.05
2023-04-28T10:57:02.501Z,96.39
2023-04-28T10:58:02.520Z,94.37
2023-04-28T10:59:02.510Z,95.68
2023-04-28T11:00:02.466Z,94.51
2023-04-28T13:16:13.653Z,94.41
2023-04-28T13:16:19.160Z,89.89
2023-04-28T13:17:18.980Z,86.45
2023-04-28T13:18:18.965Z,85.07
2023-04-28T13:19:19.037Z,86.79
2023-04-28T13:20:19.718Z,87.05
2023-04-28T13:21:18.913Z,89.39
2023-04-28T13:22:19.285Z,88.27
2023-04-28T13:23:18.886Z,87.87
2023-04-28T13:24:18.878Z,86.65
2023-04-28T13:25:18.887Z,84.53
2023-04-28T13:26:18.862Z,85.54
2023-04-28T13:27:18.854Z,87.56
2023-04-28T13:28:18.871Z,89.18
2023-04-28T13:29:18.838Z,90.50
2023-04-28T13:30:18.829Z,93.13
2023-04-28T13:31:18.825Z,93.23
2023-04-28T13:32:18.810Z,88.57
2023-04-28T13:33:18.783Z,89.28
2023-04-28T13:34:18.824Z,86.15
2023-04-28T13:35:18.777Z,85.94
2023-04-28T13:36:18.802Z,87.05
2023-04-28T13:37:18.808Z,87.66
2023-04-28T13:38:18.734Z,86.85
2023-04-28T13:39:18.715Z,86.05
2023-04-28T13:40:18.707Z,86.05
2023-04-28T13:41:18.727Z,87.87
2023-04-28T13:42:18.727Z,89.79
2023-04-28T13:43:31.455Z,88.88
2023-04-28T13:44:21.222Z,88.17
2023-04-28T13:45:22.470Z,86.96
2023-04-28T13:46:20.065Z,88.17
2023-04-28T13:47:20.054Z,89.39
2023-04-28T13:48:19.954Z,90.20
2023-04-28T13:49:19.893Z,89.83
2023-04-28T13:50:19.993Z,91.15
2023-04-28T13:51:19.948Z,92.57
2023-04-28T13:52:19.825Z,93.78
2023-04-28T13:53:19.664Z,95.81
2023-04-28T13:54:19.756Z,93.18
2023-04-28T13:55:19.821Z,93.07
2023-04-28T13:56:19.724Z,91.46
2023-04-28T13:57:19.755Z,89.83
2023-04-28T13:58:19.769Z,88.92
2023-04-28T13:59:18.544Z,89.43
2023-04-28T15:02:32.103Z,90.34
2023-04-28T15:02:39.257Z,99.99
2023-04-28T15:03:38.847Z,99.99
2023-04-28T15:04:38.849Z,99.99
2023-04-28T16:39:51.151Z,99.99
2023-04-28T16:39:58.033Z,99.99
2023-04-28T16:41:02.057Z,99.99
2023-04-28T16:44:09.016Z,99.99
2023-04-28T16:45:01.256Z,99.99
2023-04-28T16:46:01.280Z,99.99
2023-04-28T16:47:01.198Z,99.99
2023-04-28T16:48:01.191Z,99.99
2023-04-28T16:49:01.171Z,99.99
2023-04-28T16:50:01.169Z,99.99
2023-04-28T16:51:01.166Z,99.99
2023-04-28T16:52:01.149Z,99.99
2023-04-28T16:53:01.176Z,99.99
2023-04-28T16:54:01.142Z,99.99
2023-04-28T16:55:01.147Z,99.99
2023-04-28T16:56:01.309Z,99.99
2023-04-28T16:57:01.547Z,99.99
2023-04-28T16:58:01.090Z,99.99
2023-04-28T16:59:01.086Z,99.99
2023-04-28T17:00:01.076Z,99.99
2023-04-28T17:01:01.252Z,99.99
2023-04-28T17:02:01.038Z,99.99
2023-04-28T17:03:01.124Z,99.99
2023-04-28T17:04:01.129Z,99.99
2023-04-28T17:05:01.014Z,99.99
2023-04-28T17:06:01.252Z,99.99
2023-04-28T17:07:00.984Z,99.99
2023-04-28T17:08:00.979Z,99.99
2023-04-28T17:09:01.062Z,99.99
2023-04-28T17:10:00.961Z,99.99
2023-04-28T17:11:00.929Z,99.99
2023-04-28T17:12:00.957Z,99.99
2023-04-28T17:13:00.927Z,99.99
2023-04-28T17:14:00.909Z,99.99
2023-04-28T17:15:00.960Z,99.99
2023-04-28T17:16:00.940Z,99.99
2023-04-28T17:17:01.108Z,99.99
2023-04-28T17:18:00.934Z,99.99
2023-04-28T17:19:01.066Z,99.99
2023-04-28T17:20:00.872Z,99.99
2023-04-28T17:21:01.467Z,99.99
2023-04-28T17:22:01.458Z,99.99
2023-04-28T17:23:00.834Z,99.99
2023-04-28T17:24:02.497Z,99.99
2023-04-28T17:25:00.801Z,99.99
2023-04-28T17:26:00.806Z,99.99
2023-04-28T17:27:02.456Z,99.99
2023-04-28T17:28:00.770Z,99.99
2023-04-28T17:29:00.753Z,99.99
2023-04-28T17:30:00.730Z,99.99
2023-04-28T17:31:00.846Z,99.99
2023-04-28T17:32:00.733Z,99.99
2023-04-28T17:33:00.926Z,99.99
2023-04-28T17:34:01.449Z,99.99
2023-04-28T17:35:01.176Z,99.99
2023-04-28T17:36:00.701Z,99.99
2023-04-28T17:37:00.668Z,99.99
2023-04-28T17:38:00.664Z,99.99
2023-04-28T17:39:00.649Z,99.99
2023-04-28T17:40:00.750Z,99.99
2023-04-28T17:41:00.631Z,99.99
2023-04-28T17:42:00.693Z,99.99
2023-04-28T17:43:00.626Z,99.99